createdAt,value
2019-01-12T00:05:13.053Z,100470.71
2019-01-12T00:08:04.955Z,100467.09
2019-01-12T00:11:12.865Z,100467.20
2019-01-12T00:13:57.522Z,100463.98
2019-01-12T00:26:47.892Z,100460.16
2019-01-12T00:30:02.608Z,100453.75
2019-01-12T00:35:50.014Z,100449.88
2019-01-12T00:41:37.128Z,100445.73
2019-01-12T00:48:18.130Z,100441.34
2019-01-12T00:50:57.712Z,100442.59
2019-01-12T00:54:09.816Z,100433.52
2019-01-12T00:57:25.859Z,100441.40
2019-01-12T01:01:00.774Z,100443.41
2019-01-12T01:06:52.638Z,100441.37
2019-01-12T01:26:16.239Z,100437.59
2019-01-12T01:33:27.659Z,100435.88
2019-01-12T01:39:40.685Z,100432.74
2019-01-12T02:01:41.190Z,100412.77
2019-01-12T02:14:35.100Z,100387.94
2019-01-12T02:17:51.092Z,100381.59
2019-01-12T02:20:57.562Z,100384.84
2019-01-12T02:29:40.300Z,100379.48
2019-01-12T02:32:46.516Z,100375.24
2019-01-12T02:39:37.050Z,100377.00
2019-01-12T02:42:27.521Z,100370.77
2019-01-12T02:45:36.623Z,100375.66
2019-01-12T02:52:02.171Z,100362.61
2019-01-12T03:08:07.744Z,100346.94
2019-01-12T03:34:02.445Z,100313.84
2019-01-12T03:46:00.671Z,100310.73
2019-01-12T03:49:00.671Z,100294.86
2019-01-12T03:55:33.017Z,100293.12
2019-01-12T04:27:15.410Z,100259.18
2019-01-12T04:54:49.185Z,100234.97
2019-01-12T05:22:23.292Z,100215.03
2019-01-12T05:32:14.008Z,100217.55
2019-01-12T05:35:30.521Z,100215.27
2019-01-12T05:38:42.700Z,100217.58
2019-01-12T05:45:17.163Z,100220.66
2019-01-12T05:48:54.153Z,100216.80
2019-01-12T05:51:59.228Z,100218.40
2019-01-12T06:31:59.705Z,100222.08
2019-01-12T06:35:01.063Z,100221.66
2019-01-12T07:16:13.791Z,100202.07
2019-01-12T07:29:04.213Z,100190.70
2019-01-12T07:32:15.050Z,100188.73
2019-01-12T07:35:14.030Z,100187.89
2019-01-12T07:37:46.997Z,100183.68
2019-01-12T07:40:26.434Z,100183.27
2019-01-12T07:43:04.860Z,100173.88
2019-01-12T07:49:03.284Z,100166.84
2019-01-12T07:51:32.850Z,100168.17
2019-01-12T07:54:04.252Z,100164.73
2019-01-12T07:56:35.729Z,100160.19
2019-01-12T07:59:06.424Z,100148.31
2019-01-12T08:01:44.987Z,100151.80
2019-01-12T08:04:10.406Z,100151.89
2019-01-12T08:06:43.904Z,100144.58
2019-01-12T08:09:14.146Z,100149.47
2019-01-12T08:11:48.103Z,100151.11
2019-01-12T08:14:17.255Z,100146.66
2019-01-12T08:16:46.631Z,100143.27
2019-01-12T08:19:15.276Z,100142.86
2019-01-12T08:21:45.027Z,100147.56
2019-01-12T08:24:14.045Z,100147.23
2019-01-12T08:26:45.292Z,100144.72
2019-01-12T08:29:14.611Z,100140.92
2019-01-12T08:31:43.331Z,100140.11
2019-01-12T08:34:11.947Z,100128.51
2019-01-12T08:36:40.696Z,100125.31
2019-01-12T08:39:09.195Z,100119.64
2019-01-12T08:41:37.849Z,100117.71
2019-01-12T08:44:06.376Z,100116.53
2019-01-12T08:46:36.542Z,100115.66
2019-01-12T08:49:05.252Z,100113.53
2019-01-12T08:51:33.951Z,100111.53
2019-01-12T08:54:03.057Z,100110.30
2019-01-12T08:56:38.040Z,100110.42
2019-01-12T08:59:02.673Z,100105.00
2019-01-12T09:01:31.288Z,100099.59
2019-01-12T09:03:59.887Z,100090.80
2019-01-12T09:06:28.878Z,100090.69
2019-01-12T09:08:58.875Z,100090.89
2019-01-12T09:11:36.957Z,100085.59
2019-01-12T09:14:07.181Z,100085.23
2019-01-12T09:16:36.920Z,100085.70
2019-01-12T09:19:05.493Z,100097.90
2019-01-12T09:21:34.431Z,100093.56
2019-01-12T09:24:10.414Z,100088.27
2019-01-12T09:26:51.510Z,100085.34
2019-01-12T09:29:21.248Z,100077.30
2019-01-12T09:31:49.758Z,100072.02
2019-01-12T09:34:18.837Z,100071.20
2019-01-12T09:37:00.038Z,100069.13
2019-01-12T09:42:14.635Z,100053.61
2019-01-12T09:45:07.334Z,100045.53
2019-01-12T09:47:55.147Z,100048.78
2019-01-12T09:50:29.883Z,100046.53
2019-01-12T09:53:06.548Z,100046.44
2019-01-12T09:56:07.289Z,100038.29
2019-01-12T09:58:47.785Z,100043.43
2019-01-12T10:04:09.876Z,100041.36
2019-01-12T10:10:01.898Z,100030.48
2019-01-12T10:12:46.491Z,100025.34
2019-01-12T10:15:40.069Z,100014.57
2019-01-12T10:18:33.095Z,100014.84
2019-01-12T10:21:27.706Z,100015.28
2019-01-12T10:24:11.898Z,100017.71
2019-01-12T10:39:54.584Z,99995.14
2019-01-12T10:48:06.814Z,99988.20
2019-01-12T11:43:07.470Z,99911.14
2019-01-12T11:46:00.983Z,99900.48
2019-01-12T11:48:29.779Z,99900.33
2019-01-12T11:51:08.932Z,99893.73
2019-01-12T11:53:37.193Z,99894.50
2019-01-12T11:56:05.501Z,99887.86
2019-01-12T11:58:33.844Z,99891.00
2019-01-12T12:01:02.104Z,99887.75
2019-01-12T12:03:30.459Z,99890.28
2019-01-12T12:05:58.812Z,99889.13
2019-01-12T12:08:27.052Z,99880.63
2019-01-12T12:10:55.308Z,99876.53
2019-01-12T12:13:23.699Z,99877.63
2019-01-12T12:15:51.997Z,99876.66
2019-01-12T12:18:20.304Z,99869.75
2019-01-12T12:20:48.685Z,99869.35
2019-01-12T12:23:16.947Z,99862.04
2019-01-12T12:25:45.355Z,99862.27
2019-01-12T12:28:13.758Z,99864.98
2019-01-12T12:30:42.093Z,99858.45
2019-01-12T12:33:10.439Z,99861.91
2019-01-12T12:35:38.802Z,99857.88
2019-01-12T12:38:07.057Z,99859.17
2019-01-12T12:40:35.314Z,99855.09
2019-01-12T12:43:03.628Z,99847.78
2019-01-12T12:45:32.624Z,99858.45
2019-01-12T12:48:00.901Z,99849.33
2019-01-12T12:50:29.310Z,99843.59
2019-01-12T12:52:57.543Z,99843.46
2019-01-12T12:55:25.801Z,99837.05
2019-01-12T12:57:54.183Z,99838.94
2019-01-12T13:00:23.221Z,99829.45
2019-01-12T13:02:51.466Z,99833.31
2019-01-12T13:05:19.933Z,99828.56
2019-01-12T13:07:48.187Z,99826.31
2019-01-12T13:10:20.727Z,99822.80
2019-01-12T13:12:49.123Z,99821.65
2019-01-12T13:15:17.435Z,99815.66
2019-01-12T13:17:45.685Z,99819.34
2019-01-12T13:20:14.711Z,99814.81
2019-01-12T13:22:42.955Z,99808.74
2019-01-12T13:25:11.219Z,99808.56
2019-01-12T13:27:39.910Z,99806.44
2019-01-12T13:30:10.080Z,99800.05
2019-01-12T13:32:38.323Z,99799.73
2019-01-12T13:35:06.972Z,99794.72
2019-01-12T13:37:35.247Z,99790.88
2019-01-12T13:40:03.825Z,99792.99
2019-01-12T13:42:32.208Z,99787.50
2019-01-12T13:45:00.468Z,99788.60
2019-01-12T13:47:28.742Z,99789.05
2019-01-12T13:49:57.105Z,99792.06
2019-01-12T13:52:25.379Z,99787.77
2019-01-12T13:54:53.627Z,99783.02
2019-01-12T13:57:22.905Z,99776.45
2019-01-12T13:59:51.159Z,99772.51
2019-01-12T14:02:19.423Z,99774.11
2019-01-12T14:04:47.840Z,99771.70
2019-01-12T14:07:16.098Z,99760.17
2019-01-12T14:09:44.348Z,99765.00
2019-01-12T14:12:12.677Z,99764.16
2019-01-12T14:14:40.915Z,99758.22
2019-01-12T14:17:09.176Z,99759.90
2019-01-12T14:19:37.586Z,99755.20
2019-01-12T14:22:05.929Z,99753.23
2019-01-12T14:24:34.211Z,99757.25
2019-01-12T14:27:02.581Z,99752.56
2019-01-12T14:29:30.824Z,99749.11
2019-01-12T14:31:59.135Z,99751.28
2019-01-12T14:34:27.387Z,99744.13
2019-01-12T14:36:55.761Z,99746.30
2019-01-12T14:39:23.995Z,99749.59
2019-01-12T14:41:52.331Z,99744.57
2019-01-12T14:44:20.576Z,99743.01
2019-01-12T14:46:48.819Z,99740.41
2019-01-12T14:49:17.212Z,99738.59
2019-01-12T14:51:45.495Z,99735.70
2019-01-12T14:54:13.752Z,99737.43
2019-01-12T14:56:42.132Z,99737.02
2019-01-12T14:59:10.385Z,99739.65
2019-01-12T15:01:38.655Z,99735.80
2019-01-12T15:04:06.940Z,99739.17
2019-01-12T15:06:35.157Z,99740.05
2019-01-12T15:09:04.479Z,99739.50
2019-01-12T15:11:32.873Z,99737.67
2019-01-12T15:14:01.115Z,99732.69
2019-01-12T15:16:29.355Z,99735.14
2019-01-12T15:18:57.740Z,99741.34
2019-01-12T15:21:25.972Z,99733.56
2019-01-12T15:23:54.219Z,99735.61
2019-01-12T15:26:22.703Z,99734.84
2019-01-12T15:28:50.935Z,99734.95
2019-01-12T15:31:19.385Z,99729.27
2019-01-12T15:33:47.751Z,99727.15
2019-01-12T15:36:16.045Z,99727.16
2019-01-12T15:38:44.434Z,99719.58
2019-01-12T15:41:12.727Z,99726.88
2019-01-12T15:43:40.975Z,99722.17
2019-01-12T15:46:09.211Z,99722.89
2019-01-12T15:48:37.596Z,99720.81
2019-01-12T15:51:05.895Z,99715.77
2019-01-12T15:53:34.260Z,99714.17
2019-01-12T15:56:02.972Z,99711.64
2019-01-12T15:58:31.225Z,99711.47
2019-01-12T16:00:59.514Z,99707.67
2019-01-12T16:03:27.828Z,99705.19
2019-01-12T16:05:56.112Z,99702.03
2019-01-12T16:08:24.354Z,99705.67
2019-01-12T16:10:52.654Z,99706.78
2019-01-12T16:13:20.940Z,99701.24
2019-01-12T16:15:49.232Z,99698.50
2019-01-12T16:18:17.676Z,99695.87
2019-01-12T16:20:46.068Z,99692.95
2019-01-12T16:23:14.389Z,99690.39
2019-01-12T16:25:43.960Z,99684.75
2019-01-12T16:28:12.307Z,99685.59
2019-01-12T16:30:40.618Z,99685.95
2019-01-12T16:33:09.003Z,99687.55
2019-01-12T16:35:37.412Z,99684.45
2019-01-12T16:38:05.733Z,99684.75
2019-01-12T16:40:34.296Z,99684.48
2019-01-12T16:43:02.571Z,99684.06
2019-01-12T16:45:30.887Z,99675.12
2019-01-12T16:48:01.118Z,99673.72
2019-01-12T16:50:29.392Z,99667.30
2019-01-12T16:52:57.734Z,99668.86
2019-01-12T16:55:26.172Z,99669.16
2019-01-12T16:57:54.443Z,99665.00
2019-01-12T17:00:23.735Z,99666.21
2019-01-12T17:02:52.127Z,99658.87
2019-01-12T17:05:20.564Z,99662.23
2019-01-12T17:07:48.961Z,99665.48
2019-01-12T17:10:18.297Z,99670.84
2019-01-12T17:12:46.523Z,99666.92
2019-01-12T17:15:15.456Z,99663.05
2019-01-12T17:17:43.844Z,99664.50
2019-01-12T17:20:16.424Z,99658.44
2019-01-12T17:22:44.923Z,99665.17
2019-01-12T17:25:13.258Z,99671.91
2019-01-12T17:27:41.521Z,99674.14
2019-01-12T17:30:11.476Z,99675.98
2019-01-12T17:32:39.908Z,99673.52
2019-01-12T17:35:08.881Z,99672.27
2019-01-12T17:37:37.316Z,99667.78
2019-01-12T17:40:06.590Z,99674.14
2019-01-12T17:42:34.975Z,99673.36
2019-01-12T17:45:03.224Z,99677.00
2019-01-12T17:47:31.546Z,99670.05
2019-01-12T17:49:59.822Z,99668.98
2019-01-12T17:52:28.095Z,99662.80
2019-01-12T17:54:56.495Z,99662.12
2019-01-12T17:57:24.744Z,99672.63
2019-01-12T17:59:53.018Z,99667.36
2019-01-12T18:02:22.161Z,99669.78
2019-01-12T18:04:50.534Z,99670.47
2019-01-12T18:07:18.931Z,99665.53
2019-01-12T18:09:47.228Z,99663.38
2019-01-12T18:12:15.468Z,99667.04
2019-01-12T18:14:43.827Z,99673.49
2019-01-12T18:17:12.241Z,99677.25
2019-01-12T18:19:40.484Z,99672.31
2019-01-12T18:22:08.737Z,99669.46
2019-01-12T18:24:37.031Z,99677.62
2019-01-12T18:27:05.308Z,99679.11
2019-01-12T18:29:33.565Z,99677.98
2019-01-12T18:32:01.967Z,99673.34
2019-01-12T18:34:30.254Z,99674.05
2019-01-12T18:36:58.571Z,99677.25
2019-01-12T18:39:26.972Z,99672.91
2019-01-12T18:41:55.236Z,99675.86
2019-01-12T18:44:23.615Z,99678.02
2019-01-12T18:46:51.942Z,99679.61
2019-01-12T18:49:20.171Z,99666.20
2019-01-12T18:51:48.420Z,99659.93
2019-01-12T18:54:16.728Z,99662.04
2019-01-12T18:56:45.043Z,99663.93
2019-01-12T18:59:14.187Z,99664.50
2019-01-12T19:01:42.596Z,99667.34
2019-01-12T19:04:10.867Z,99662.64
2019-01-12T19:06:39.150Z,99662.17
2019-01-12T19:09:07.892Z,99665.48
2019-01-12T19:11:37.116Z,99662.72
2019-01-12T19:14:05.466Z,99653.71
2019-01-12T19:16:33.793Z,99646.80
2019-01-12T19:19:02.033Z,99647.71
2019-01-12T19:21:30.271Z,99644.59
2019-01-12T19:23:58.828Z,99635.91
2019-01-12T19:26:27.105Z,99632.73
2019-01-12T19:28:55.400Z,99634.19
2019-01-12T19:31:23.712Z,99628.52
2019-01-12T19:33:51.983Z,99623.29
2019-01-12T19:36:20.252Z,99623.36
2019-01-12T19:38:48.544Z,99621.61
2019-01-12T19:41:16.800Z,99613.18
2019-01-12T19:43:45.032Z,99615.61
2019-01-12T19:46:13.428Z,99611.80
2019-01-12T19:48:41.664Z,99611.53
2019-01-12T19:51:09.930Z,99610.38
2019-01-12T19:53:38.218Z,99599.13
2019-01-12T19:56:06.468Z,99596.13
2019-01-12T19:58:34.715Z,99592.48
2019-01-12T20:01:03.980Z,99595.17
2019-01-12T20:03:32.221Z,99598.85
2019-01-12T20:06:00.463Z,99598.52
2019-01-12T20:08:28.795Z,99593.08
2019-01-12T20:10:57.035Z,99590.18
2019-01-12T20:13:25.299Z,99593.27
2019-01-12T20:15:53.624Z,99601.55
2019-01-12T20:18:21.875Z,99601.55
2019-01-12T20:20:50.107Z,99602.23
2019-01-12T20:23:18.405Z,99603.36
2019-01-12T20:25:46.653Z,99596.59
2019-01-12T20:28:16.147Z,99604.03
2019-01-12T20:30:58.908Z,99602.03
2019-01-12T20:33:58.505Z,99602.70
2019-01-12T20:36:44.632Z,99597.58
2019-01-12T20:39:35.185Z,99596.85
2019-01-12T20:42:21.273Z,99587.66
2019-01-12T20:44:59.967Z,99586.15
2019-01-12T20:47:35.564Z,99588.27
2019-01-12T20:50:08.277Z,99587.63
2019-01-12T20:52:54.612Z,99580.74
2019-01-12T20:55:29.996Z,99577.80
2019-01-12T20:58:17.440Z,99576.12
2019-01-12T21:01:07.851Z,99571.06
2019-01-12T21:04:01.328Z,99563.17
2019-01-12T21:06:46.635Z,99563.02
2019-01-12T21:09:20.671Z,99563.89
2019-01-12T21:12:15.684Z,99563.78
2019-01-12T21:14:46.732Z,99559.23
2019-01-12T21:17:16.162Z,99557.17
2019-01-12T21:19:48.356Z,99551.45
2019-01-12T21:22:14.467Z,99557.47
2019-01-12T21:24:43.438Z,99551.45
2019-01-12T21:27:11.739Z,99546.31
2019-01-12T21:29:43.035Z,99547.41
2019-01-12T21:32:10.114Z,99555.61
2019-01-12T21:34:38.335Z,99555.92
2019-01-12T21:37:06.763Z,99554.04
2019-01-12T21:39:35.032Z,99547.87
2019-01-12T21:42:03.277Z,99541.27
2019-01-12T21:44:31.679Z,99545.88
2019-01-12T21:46:59.939Z,99542.68
2019-01-12T21:49:28.251Z,99542.66
2019-01-12T21:51:56.535Z,99547.36
2019-01-12T21:54:24.812Z,99549.86
2019-01-12T21:56:53.053Z,99543.55
2019-01-12T21:59:21.470Z,99535.70
2019-01-12T22:01:49.708Z,99537.86
2019-01-12T22:04:17.947Z,99543.82
2019-01-12T22:06:46.244Z,99536.22
2019-01-12T22:09:14.534Z,99535.45
2019-01-12T22:11:42.731Z,99539.21
2019-01-12T22:14:11.028Z,99543.07
2019-01-12T22:16:39.260Z,99538.42
2019-01-12T22:19:07.513Z,99539.74
2019-01-12T22:21:35.851Z,99529.91
2019-01-12T22:24:04.095Z,99527.79
2019-01-12T22:26:32.347Z,99522.70
2019-01-12T22:29:00.731Z,99522.55
2019-01-12T22:31:28.971Z,99522.36
2019-01-12T22:33:57.224Z,99523.56
2019-01-12T22:36:25.540Z,99521.47
2019-01-12T22:38:53.774Z,99520.73
2019-01-12T22:41:22.016Z,99518.20
2019-01-12T22:43:50.436Z,99511.52
2019-01-12T22:46:18.688Z,99522.17
2019-01-12T22:48:47.035Z,99514.56
2019-01-12T22:51:15.372Z,99517.16
2019-01-12T22:53:43.612Z,99511.52
2019-01-12T22:56:11.860Z,99509.73
2019-01-12T22:58:40.177Z,99505.96
2019-01-12T23:01:28.250Z,99494.86
2019-01-12T23:03:56.550Z,99494.52
2019-01-12T23:06:24.783Z,99494.05
2019-01-12T23:08:53.061Z,99493.66
2019-01-12T23:11:21.363Z,99491.14
2019-01-12T23:13:49.651Z,99493.17
2019-01-12T23:16:17.915Z,99484.28
2019-01-12T23:18:46.215Z,99482.53
2019-01-12T23:21:14.480Z,99481.28
2019-01-12T23:23:42.719Z,99486.45
2019-01-12T23:26:11.016Z,99482.55
2019-01-12T23:28:39.294Z,99477.03
2019-01-12T23:31:07.543Z,99466.77
2019-01-12T23:33:35.841Z,99466.82
2019-01-12T23:36:04.121Z,99466.94
2019-01-12T23:38:32.328Z,99460.87
2019-01-12T23:41:00.651Z,99458.25
2019-01-12T23:43:28.907Z,99452.14
2019-01-12T23:45:57.223Z,99449.23
2019-01-12T23:48:25.533Z,99443.77
2019-01-12T23:50:53.825Z,99439.21
2019-01-12T23:53:22.187Z,99435.70
2019-01-12T23:55:50.574Z,99422.91
2019-01-12T23:58:18.812Z,99419.50
